createdAt,value
2019-05-25T00:02:12.625Z,18.13
2019-05-25T00:04:45.158Z,18.02
2019-05-25T00:07:17.327Z,18.08
2019-05-25T00:09:49.614Z,18.15
2019-05-25T00:12:23.714Z,18.08
2019-05-25T00:14:55.790Z,17.97
2019-05-25T00:17:27.917Z,18.00
2019-05-25T00:20:00.219Z,17.89
2019-05-25T00:22:32.606Z,17.97
2019-05-25T00:25:05.964Z,18.01
2019-05-25T00:27:38.186Z,17.94
2019-05-25T00:30:10.641Z,18.01
2019-05-25T00:32:42.941Z,18.07
2019-05-25T00:35:15.064Z,18.07
2019-05-25T00:37:47.351Z,18.07
2019-05-25T00:40:19.472Z,18.02
2019-05-25T00:42:51.605Z,17.94
2019-05-25T00:45:23.816Z,17.88
2019-05-25T00:47:56.022Z,17.92
2019-05-25T00:50:28.293Z,17.94
2019-05-25T00:53:00.481Z,17.85
2019-05-25T00:55:32.738Z,17.94
2019-05-25T00:58:05.011Z,17.91
2019-05-25T01:00:37.273Z,17.93
2019-05-25T01:03:09.525Z,18.05
2019-05-25T01:05:41.717Z,18.00
2019-05-25T01:08:13.706Z,17.99
2019-05-25T01:10:45.937Z,17.99
2019-05-25T01:13:18.503Z,18.03
2019-05-25T01:15:50.677Z,17.95
2019-05-25T01:18:22.882Z,17.88
2019-05-25T01:20:55.128Z,17.94
2019-05-25T01:23:27.180Z,17.81
2019-05-25T01:25:59.341Z,17.92
2019-05-25T01:28:31.616Z,17.90
2019-05-25T01:31:03.831Z,17.94
2019-05-25T01:33:35.945Z,17.73
2019-05-25T01:36:08.231Z,17.74
2019-05-25T01:38:40.500Z,17.79
2019-05-25T01:41:12.773Z,17.87
2019-05-25T01:43:44.976Z,17.91
2019-05-25T01:46:17.550Z,18.02
2019-05-25T01:48:49.266Z,17.91
2019-05-25T01:51:21.556Z,17.97
2019-05-25T01:53:53.544Z,17.99
2019-05-25T01:56:25.778Z,17.89
2019-05-25T01:58:58.058Z,17.82
2019-05-25T02:01:30.424Z,17.77
2019-05-25T02:04:02.507Z,17.84
2019-05-25T02:06:35.716Z,17.80
2019-05-25T02:09:08.353Z,17.68
2019-05-25T02:11:40.624Z,17.72
2019-05-25T02:14:12.829Z,17.75
2019-05-25T02:16:45.070Z,17.74
2019-05-25T02:19:17.349Z,17.86
2019-05-25T02:21:49.621Z,17.80
2019-05-25T02:24:21.610Z,17.83
2019-05-25T02:26:53.662Z,17.83
2019-05-25T02:29:25.834Z,17.79
2019-05-25T02:31:57.821Z,17.82
2019-05-25T02:34:30.044Z,17.73
2019-05-25T02:37:02.201Z,17.76
2019-05-25T02:39:34.260Z,17.79
2019-05-25T02:42:06.641Z,17.72
2019-05-25T02:44:38.803Z,17.79
2019-05-25T02:47:11.153Z,17.81
2019-05-25T02:49:43.352Z,17.84
2019-05-25T02:52:15.413Z,17.91
2019-05-25T02:54:47.683Z,17.84
2019-05-25T02:57:19.966Z,17.89
2019-05-25T02:59:52.235Z,17.81
2019-05-25T03:02:24.702Z,17.85
2019-05-25T03:04:56.996Z,18.01
2019-05-25T03:07:30.055Z,18.06
2019-05-25T03:10:02.984Z,18.08
2019-05-25T03:12:34.834Z,18.05
2019-05-25T03:15:07.714Z,18.17
2019-05-25T03:17:39.785Z,18.23
2019-05-25T03:20:12.443Z,18.28
2019-05-25T03:22:44.543Z,18.09
2019-05-25T03:25:18.031Z,18.27
2019-05-25T03:27:50.228Z,18.27
2019-05-25T03:30:33.482Z,18.26
2019-05-25T03:33:05.870Z,18.37
2019-05-25T03:35:37.918Z,18.42
2019-05-25T03:38:10.929Z,18.47
2019-05-25T03:40:43.068Z,18.35
2019-05-25T03:43:15.136Z,18.58
2019-05-25T03:45:47.331Z,18.72
2019-05-25T03:48:19.392Z,18.89
2019-05-25T03:50:51.446Z,18.75
2019-05-25T03:53:23.746Z,18.94
2019-05-25T03:56:05.197Z,18.79
2019-05-25T03:58:29.853Z,18.89
2019-05-25T04:01:02.020Z,18.66
2019-05-25T04:03:34.079Z,19.03
2019-05-25T04:06:06.329Z,18.89
2019-05-25T04:08:38.585Z,19.16
2019-05-25T04:11:10.876Z,19.22
2019-05-25T04:13:43.174Z,19.98
2019-05-25T04:16:15.411Z,19.92
2019-05-25T04:18:47.529Z,20.64
2019-05-25T04:21:19.730Z,20.61
2019-05-25T04:23:51.938Z,20.59
2019-05-25T04:26:27.451Z,20.86
2019-05-25T04:28:58.429Z,19.84
2019-05-25T04:31:30.522Z,19.49
2019-05-25T04:34:02.516Z,19.43
2019-05-25T04:36:34.703Z,19.43
2019-05-25T04:39:08.469Z,19.05
2019-05-25T04:41:40.650Z,19.23
2019-05-25T04:44:12.735Z,18.95
2019-05-25T04:46:45.007Z,18.80
2019-05-25T04:49:17.200Z,18.75
2019-05-25T04:51:49.172Z,19.11
2019-05-25T04:54:21.232Z,19.31
2019-05-25T04:56:53.469Z,19.06
2019-05-25T04:59:25.675Z,19.04
2019-05-25T05:01:57.837Z,19.08
2019-05-25T05:04:30.908Z,19.07
2019-05-25T05:07:02.951Z,19.13
2019-05-25T05:09:35.007Z,19.13
2019-05-25T05:12:07.158Z,19.14
2019-05-25T05:14:39.220Z,19.43
2019-05-25T05:17:11.272Z,19.44
2019-05-25T05:19:44.626Z,19.35
2019-05-25T05:22:16.897Z,19.29
2019-05-25T05:24:49.109Z,19.35
2019-05-25T05:27:21.330Z,19.49
2019-05-25T05:29:53.531Z,19.35
2019-05-25T05:32:27.812Z,19.29
2019-05-25T05:35:00.613Z,19.39
2019-05-25T05:37:32.879Z,19.75
2019-05-25T05:40:08.174Z,19.42
2019-05-25T05:42:43.306Z,19.40
2019-05-25T05:45:15.405Z,19.34
2019-05-25T05:47:50.172Z,19.40
2019-05-25T05:50:22.360Z,19.83
2019-05-25T05:52:55.758Z,19.71
2019-05-25T05:55:30.860Z,19.65
2019-05-25T05:58:02.925Z,19.41
2019-05-25T06:00:34.988Z,19.65
2019-05-25T06:03:06.982Z,19.90
2019-05-25T06:05:39.055Z,20.25
2019-05-25T06:08:11.222Z,20.47
2019-05-25T06:10:43.595Z,20.98
2019-05-25T06:13:15.831Z,20.99
2019-05-25T06:15:48.106Z,21.00
2019-05-25T06:18:20.378Z,20.44
2019-05-25T06:20:52.623Z,20.66
2019-05-25T06:23:24.779Z,21.14
2019-05-25T06:25:57.078Z,22.25
2019-05-25T06:28:29.433Z,21.66
2019-05-25T06:31:01.818Z,21.86
2019-05-25T06:33:34.095Z,20.86
2019-05-25T06:36:06.356Z,21.36
2019-05-25T06:38:38.633Z,21.76
2019-05-25T06:41:10.699Z,21.88
2019-05-25T06:43:42.876Z,22.03
2019-05-25T06:46:15.129Z,21.33
2019-05-25T06:48:47.398Z,21.80
2019-05-25T06:51:19.592Z,21.35
2019-05-25T06:53:51.838Z,21.54
2019-05-25T06:56:24.042Z,21.97
2019-05-25T06:58:56.471Z,21.63
2019-05-25T07:01:29.085Z,21.50
2019-05-25T07:04:01.236Z,21.74
2019-05-25T07:06:33.530Z,21.76
2019-05-25T07:09:07.468Z,22.18
2019-05-25T07:11:39.569Z,22.46
2019-05-25T07:14:11.617Z,22.43
2019-05-25T07:16:43.837Z,22.58
2019-05-25T07:19:16.025Z,22.54
2019-05-25T07:21:48.167Z,22.92
2019-05-25T07:24:20.219Z,22.60
2019-05-25T07:26:52.499Z,22.19
2019-05-25T07:29:24.759Z,21.91
2019-05-25T07:31:58.093Z,21.82
2019-05-25T07:34:30.311Z,21.59
2019-05-25T07:37:02.594Z,21.99
2019-05-25T07:39:34.651Z,22.46
2019-05-25T07:42:06.850Z,22.49
2019-05-25T07:44:39.097Z,22.89
